sensor_id;sensor_type;location;lat;lon;timestamp;P1;durP1;ratioP1;P2;durP2;ratioP2
67503;SDS011;54351;49.108;1.502;2023-01-09T00:01:16;186.77;;;173.43;;
67503;SDS011;54351;49.108;1.502;2023-01-09T00:03:43;167.93;;;157.57;;
67503;SDS011;54351;49.108;1.502;2023-01-09T00:06:09;137.82;;;128.57;;
67503;SDS011;54351;49.108;1.502;2023-01-09T00:08:35;203.80;;;190.15;;
67503;SDS011;54351;49.108;1.502;2023-01-09T00:11:01;168.80;;;157.98;;
67503;SDS011;54351;49.108;1.502;2023-01-09T00:13:27;141.63;;;131.73;;
67503;SDS011;54351;49.108;1.502;2023-01-09T00:15:53;172.70;;;161.40;;
67503;SDS011;54351;49.108;1.502;2023-01-09T00:18:19;171.93;;;159.98;;
67503;SDS011;54351;49.108;1.502;2023-01-09T00:20:45;183.88;;;171.75;;
67503;SDS011;54351;49.108;1.502;2023-01-09T00:23:11;142.30;;;133.25;;
67503;SDS011;54351;49.108;1.502;2023-01-09T00:25:38;125.50;;;116.50;;
67503;SDS011;54351;49.108;1.502;2023-01-09T00:28:05;143.82;;;134.25;;
67503;SDS011;54351;49.108;1.502;2023-01-09T00:30:31;145.93;;;135.98;;
67503;SDS011;54351;49.108;1.502;2023-01-09T00:32:57;118.82;;;109.85;;
67503;SDS011;54351;49.108;1.502;2023-01-09T00:35:23;137.23;;;128.45;;
67503;SDS011;54351;49.108;1.502;2023-01-09T00:37:50;155.18;;;144.48;;
67503;SDS011;54351;49.108;1.502;2023-01-09T00:40:16;126.95;;;118.03;;
67503;SDS011;54351;49.108;1.502;2023-01-09T00:42:43;125.40;;;116.53;;
67503;SDS011;54351;49.108;1.502;2023-01-09T00:45:15;213.90;;;199.73;;
67503;SDS011;54351;49.108;1.502;2023-01-09T00:47:45;160.20;;;149.52;;
67503;SDS011;54351;49.108;1.502;2023-01-09T00:50:13;152.90;;;142.40;;
67503;SDS011;54351;49.108;1.502;2023-01-09T00:52:40;167.43;;;156.55;;
67503;SDS011;54351;49.108;1.502;2023-01-09T00:55:06;135.98;;;126.68;;
67503;SDS011;54351;49.108;1.502;2023-01-09T00:57:33;123.60;;;114.80;;
67503;SDS011;54351;49.108;1.502;2023-01-09T00:59:59;158.38;;;147.27;;
67503;SDS011;54351;49.108;1.502;2023-01-09T01:02:25;206.82;;;193.23;;
67503;SDS011;54351;49.108;1.502;2023-01-09T01:04:52;237.30;;;220.80;;
67503;SDS011;54351;49.108;1.502;2023-01-09T01:07:36;233.98;;;218.45;;
67503;SDS011;54351;49.108;1.502;2023-01-09T01:10:03;135.48;;;125.38;;
67503;SDS011;54351;49.108;1.502;2023-01-09T01:12:30;158.02;;;146.38;;
67503;SDS011;54351;49.108;1.502;2023-01-09T01:14:56;140.25;;;130.70;;
67503;SDS011;54351;49.108;1.502;2023-01-09T01:17:22;143.68;;;132.88;;
67503;SDS011;54351;49.108;1.502;2023-01-09T01:19:48;105.65;;;98.13;;
67503;SDS011;54351;49.108;1.502;2023-01-09T01:22:14;134.93;;;125.50;;
67503;SDS011;54351;49.108;1.502;2023-01-09T01:24:40;156.52;;;145.63;;
67503;SDS011;54351;49.108;1.502;2023-01-09T01:27:06;170.73;;;159.27;;
67503;SDS011;54351;49.108;1.502;2023-01-09T01:29:32;160.50;;;149.13;;
67503;SDS011;54351;49.108;1.502;2023-01-09T01:31:58;147.77;;;137.40;;
67503;SDS011;54351;49.108;1.502;2023-01-09T01:34:24;163.07;;;152.20;;
67503;SDS011;54351;49.108;1.502;2023-01-09T01:36:50;144.30;;;134.65;;
67503;SDS011;54351;49.108;1.502;2023-01-09T01:39:17;129.98;;;120.10;;
67503;SDS011;54351;49.108;1.502;2023-01-09T01:41:43;169.88;;;158.50;;
67503;SDS011;54351;49.108;1.502;2023-01-09T01:46:53;121.15;;;112.70;;
67503;SDS011;54351;49.108;1.502;2023-01-09T01:49:20;189.40;;;176.45;;
67503;SDS011;54351;49.108;1.502;2023-01-09T01:51:47;189.60;;;176.65;;
67503;SDS011;54351;49.108;1.502;2023-01-09T01:54:21;145.15;;;134.85;;
67503;SDS011;54351;49.108;1.502;2023-01-09T01:56:50;193.82;;;180.13;;
67503;SDS011;54351;49.108;1.502;2023-01-09T02:01:46;146.07;;;136.00;;
67503;SDS011;54351;49.108;1.502;2023-01-09T02:04:13;138.45;;;128.65;;
67503;SDS011;54351;49.108;1.502;2023-01-09T02:06:39;128.50;;;118.60;;
67503;SDS011;54351;49.108;1.502;2023-01-09T02:09:06;117.47;;;109.70;;
67503;SDS011;54351;49.108;1.502;2023-01-09T02:11:33;161.02;;;149.93;;
67503;SDS011;54351;49.108;1.502;2023-01-09T02:13:59;130.23;;;121.10;;
67503;SDS011;54351;49.108;1.502;2023-01-09T02:21:23;140.32;;;130.35;;
67503;SDS011;54351;49.108;1.502;2023-01-09T02:36:58;132.02;;;122.63;;
67503;SDS011;54351;49.108;1.502;2023-01-09T02:49:35;133.45;;;123.85;;
67503;SDS011;54351;49.108;1.502;2023-01-09T02:52:09;158.50;;;146.68;;
67503;SDS011;54351;49.108;1.502;2023-01-09T03:02:04;204.38;;;189.65;;
67503;SDS011;54351;49.108;1.502;2023-01-09T03:07:13;262.27;;;245.00;;
67503;SDS011;54351;49.108;1.502;2023-01-09T03:09:42;225.85;;;210.50;;
67503;SDS011;54351;49.108;1.502;2023-01-09T03:12:16;260.55;;;242.02;;
67503;SDS011;54351;49.108;1.502;2023-01-09T03:14:48;246.38;;;228.73;;
67503;SDS011;54351;49.108;1.502;2023-01-09T03:17:17;214.45;;;198.60;;
67503;SDS011;54351;49.108;1.502;2023-01-09T03:19:45;173.65;;;160.80;;
67503;SDS011;54351;49.108;1.502;2023-01-09T03:22:11;235.63;;;218.90;;
67503;SDS011;54351;49.108;1.502;2023-01-09T03:24:37;197.77;;;182.57;;
67503;SDS011;54351;49.108;1.502;2023-01-09T03:27:05;257.88;;;239.85;;
67503;SDS011;54351;49.108;1.502;2023-01-09T03:29:32;230.50;;;214.07;;
67503;SDS011;54351;49.108;1.502;2023-01-09T03:31:58;182.45;;;169.15;;
67503;SDS011;54351;49.108;1.502;2023-01-09T03:34:24;233.93;;;216.23;;
67503;SDS011;54351;49.108;1.502;2023-01-09T03:36:50;299.10;;;277.17;;
67503;SDS011;54351;49.108;1.502;2023-01-09T03:39:16;211.93;;;195.93;;
67503;SDS011;54351;49.108;1.502;2023-01-09T03:41:42;241.25;;;223.98;;
67503;SDS011;54351;49.108;1.502;2023-01-09T03:44:08;266.25;;;247.02;;
67503;SDS011;54351;49.108;1.502;2023-01-09T03:46:34;174.68;;;161.85;;
67503;SDS011;54351;49.108;1.502;2023-01-09T03:49:00;335.13;;;309.67;;
67503;SDS011;54351;49.108;1.502;2023-01-09T03:51:26;320.63;;;297.58;;
67503;SDS011;54351;49.108;1.502;2023-01-09T03:53:52;305.00;;;281.50;;
67503;SDS011;54351;49.108;1.502;2023-01-09T03:56:19;318.58;;;295.85;;
67503;SDS011;54351;49.108;1.502;2023-01-09T03:58:45;329.05;;;304.80;;
67503;SDS011;54351;49.108;1.502;2023-01-09T04:01:14;335.40;;;311.65;;
67503;SDS011;54351;49.108;1.502;2023-01-09T04:03:40;346.88;;;321.70;;
67503;SDS011;54351;49.108;1.502;2023-01-09T04:06:06;227.55;;;210.57;;
67503;SDS011;54351;49.108;1.502;2023-01-09T04:08:32;196.02;;;180.85;;
67503;SDS011;54351;49.108;1.502;2023-01-09T04:10:58;265.50;;;245.95;;
67503;SDS011;54351;49.108;1.502;2023-01-09T04:13:24;299.45;;;277.30;;
67503;SDS011;54351;49.108;1.502;2023-01-09T04:15:50;372.45;;;345.63;;
67503;SDS011;54351;49.108;1.502;2023-01-09T04:18:17;286.30;;;265.33;;
67503;SDS011;54351;49.108;1.502;2023-01-09T04:20:45;286.02;;;265.15;;
67503;SDS011;54351;49.108;1.502;2023-01-09T04:23:11;228.93;;;211.55;;
67503;SDS011;54351;49.108;1.502;2023-01-09T04:25:37;134.10;;;124.20;;
67503;SDS011;54351;49.108;1.502;2023-01-09T04:28:04;123.38;;;114.00;;
67503;SDS011;54351;49.108;1.502;2023-01-09T04:30:30;111.30;;;103.68;;
67503;SDS011;54351;49.108;1.502;2023-01-09T04:32:56;146.27;;;135.85;;
67503;SDS011;54351;49.108;1.502;2023-01-09T04:35:22;160.18;;;149.07;;
67503;SDS011;54351;49.108;1.502;2023-01-09T04:37:49;140.13;;;129.65;;
67503;SDS011;54351;49.108;1.502;2023-01-09T04:40:15;184.23;;;170.80;;
67503;SDS011;54351;49.108;1.502;2023-01-09T04:42:42;341.80;;;317.38;;
67503;SDS011;54351;49.108;1.502;2023-01-09T04:45:09;316.98;;;294.75;;
67503;SDS011;54351;49.108;1.502;2023-01-09T04:47:35;415.75;;;386.15;;
67503;SDS011;54351;49.108;1.502;2023-01-09T04:50:02;430.45;;;399.45;;
67503;SDS011;54351;49.108;1.502;2023-01-09T04:52:28;411.95;;;382.08;;
67503;SDS011;54351;49.108;1.502;2023-01-09T04:54:54;474.17;;;439.13;;
67503;SDS011;54351;49.108;1.502;2023-01-09T04:57:20;462.75;;;426.88;;
67503;SDS011;54351;49.108;1.502;2023-01-09T04:59:46;511.70;;;472.02;;
67503;SDS011;54351;49.108;1.502;2023-01-09T05:02:12;459.95;;;426.33;;
67503;SDS011;54351;49.108;1.502;2023-01-09T05:04:40;497.40;;;460.00;;
67503;SDS011;54351;49.108;1.502;2023-01-09T05:07:06;546.05;;;502.85;;
67503;SDS011;54351;49.108;1.502;2023-01-09T05:09:32;483.02;;;445.77;;
67503;SDS011;54351;49.108;1.502;2023-01-09T05:11:58;468.27;;;432.48;;
67503;SDS011;54351;49.108;1.502;2023-01-09T05:14:24;504.45;;;465.83;;
67503;SDS011;54351;49.108;1.502;2023-01-09T05:16:50;485.48;;;449.75;;
67503;SDS011;54351;49.108;1.502;2023-01-09T05:19:16;456.33;;;422.13;;
67503;SDS011;54351;49.108;1.502;2023-01-09T05:21:43;432.55;;;401.67;;
67503;SDS011;54351;49.108;1.502;2023-01-09T05:24:09;440.10;;;408.48;;
67503;SDS011;54351;49.108;1.502;2023-01-09T05:26:35;434.15;;;402.50;;
67503;SDS011;54351;49.108;1.502;2023-01-09T05:29:01;330.85;;;307.05;;
67503;SDS011;54351;49.108;1.502;2023-01-09T05:31:27;360.50;;;334.83;;
67503;SDS011;54351;49.108;1.502;2023-01-09T05:33:53;389.33;;;361.45;;
67503;SDS011;54351;49.108;1.502;2023-01-09T05:36:19;363.38;;;336.90;;
67503;SDS011;54351;49.108;1.502;2023-01-09T05:38:45;485.23;;;449.60;;
67503;SDS011;54351;49.108;1.502;2023-01-09T05:41:11;421.98;;;390.38;;
67503;SDS011;54351;49.108;1.502;2023-01-09T05:43:37;471.15;;;437.10;;
67503;SDS011;54351;49.108;1.502;2023-01-09T05:46:03;490.48;;;454.95;;
67503;SDS011;54351;49.108;1.502;2023-01-09T05:48:29;488.13;;;452.80;;
67503;SDS011;54351;49.108;1.502;2023-01-09T05:50:55;521.90;;;480.10;;
67503;SDS011;54351;49.108;1.502;2023-01-09T05:53:22;493.75;;;457.95;;
67503;SDS011;54351;49.108;1.502;2023-01-09T05:55:48;423.73;;;392.98;;
67503;SDS011;54351;49.108;1.502;2023-01-09T05:58:14;450.52;;;417.50;;
67503;SDS011;54351;49.108;1.502;2023-01-09T06:00:40;493.83;;;457.67;;
67503;SDS011;54351;49.108;1.502;2023-01-09T06:03:06;490.30;;;451.83;;
67503;SDS011;54351;49.108;1.502;2023-01-09T06:05:32;529.75;;;488.90;;
67503;SDS011;54351;49.108;1.502;2023-01-09T06:07:58;462.10;;;428.15;;
67503;SDS011;54351;49.108;1.502;2023-01-09T06:10:24;449.30;;;416.67;;
67503;SDS011;54351;49.108;1.502;2023-01-09T06:12:50;421.30;;;390.55;;
67503;SDS011;54351;49.108;1.502;2023-01-09T06:15:18;330.75;;;306.70;;
67503;SDS011;54351;49.108;1.502;2023-01-09T06:17:44;281.55;;;260.77;;
67503;SDS011;54351;49.108;1.502;2023-01-09T06:20:11;352.63;;;326.42;;
67503;SDS011;54351;49.108;1.502;2023-01-09T06:22:37;416.30;;;385.65;;
67503;SDS011;54351;49.108;1.502;2023-01-09T06:25:03;302.38;;;280.15;;
67503;SDS011;54351;49.108;1.502;2023-01-09T06:27:29;348.50;;;323.00;;
67503;SDS011;54351;49.108;1.502;2023-01-09T06:29:55;209.13;;;193.57;;
67503;SDS011;54351;49.108;1.502;2023-01-09T06:32:21;227.32;;;210.70;;
67503;SDS011;54351;49.108;1.502;2023-01-09T06:34:47;185.18;;;171.27;;
67503;SDS011;54351;49.108;1.502;2023-01-09T06:37:13;202.32;;;186.93;;
67503;SDS011;54351;49.108;1.502;2023-01-09T06:39:39;186.30;;;172.82;;
67503;SDS011;54351;49.108;1.502;2023-01-09T06:42:05;243.18;;;225.35;;
67503;SDS011;54351;49.108;1.502;2023-01-09T06:44:31;218.63;;;203.02;;
67503;SDS011;54351;49.108;1.502;2023-01-09T06:47:00;208.20;;;194.00;;
67503;SDS011;54351;49.108;1.502;2023-01-09T06:49:26;239.75;;;223.15;;
67503;SDS011;54351;49.108;1.502;2023-01-09T06:51:52;173.98;;;161.65;;
67503;SDS011;54351;49.108;1.502;2023-01-09T06:54:18;178.07;;;166.07;;
67503;SDS011;54351;49.108;1.502;2023-01-09T06:56:45;245.73;;;228.73;;
67503;SDS011;54351;49.108;1.502;2023-01-09T06:59:11;258.27;;;239.63;;
67503;SDS011;54351;49.108;1.502;2023-01-09T07:01:37;315.92;;;293.10;;
67503;SDS011;54351;49.108;1.502;2023-01-09T07:04:04;272.65;;;252.70;;
67503;SDS011;54351;49.108;1.502;2023-01-09T07:06:30;256.83;;;238.38;;
67503;SDS011;54351;49.108;1.502;2023-01-09T07:08:56;356.40;;;331.38;;
67503;SDS011;54351;49.108;1.502;2023-01-09T07:11:22;221.15;;;205.25;;
67503;SDS011;54351;49.108;1.502;2023-01-09T07:13:49;249.73;;;232.55;;
67503;SDS011;54351;49.108;1.502;2023-01-09T07:16:15;189.88;;;176.77;;
67503;SDS011;54351;49.108;1.502;2023-01-09T07:18:41;233.80;;;218.50;;
67503;SDS011;54351;49.108;1.502;2023-01-09T07:21:07;171.32;;;160.00;;
67503;SDS011;54351;49.108;1.502;2023-01-09T07:23:33;108.25;;;101.07;;
67503;SDS011;54351;49.108;1.502;2023-01-09T07:25:59;201.25;;;188.05;;
67503;SDS011;54351;49.108;1.502;2023-01-09T07:28:25;234.63;;;218.80;;
67503;SDS011;54351;49.108;1.502;2023-01-09T07:30:51;233.65;;;217.95;;
67503;SDS011;54351;49.108;1.502;2023-01-09T07:33:17;266.50;;;248.07;;
67503;SDS011;54351;49.108;1.502;2023-01-09T07:35:43;321.92;;;299.58;;
67503;SDS011;54351;49.108;1.502;2023-01-09T07:38:10;309.10;;;287.45;;
67503;SDS011;54351;49.108;1.502;2023-01-09T07:40:36;262.83;;;244.98;;
67503;SDS011;54351;49.108;1.502;2023-01-09T07:43:02;271.17;;;252.85;;
67503;SDS011;54351;49.108;1.502;2023-01-09T07:45:28;243.73;;;227.43;;
67503;SDS011;54351;49.108;1.502;2023-01-09T07:47:54;204.65;;;190.65;;
67503;SDS011;54351;49.108;1.502;2023-01-09T07:50:20;240.77;;;223.70;;
67503;SDS011;54351;49.108;1.502;2023-01-09T07:52:46;267.08;;;248.40;;
67503;SDS011;54351;49.108;1.502;2023-01-09T07:55:12;269.63;;;250.60;;
67503;SDS011;54351;49.108;1.502;2023-01-09T07:57:39;320.30;;;297.23;;
67503;SDS011;54351;49.108;1.502;2023-01-09T08:00:05;260.63;;;241.90;;
67503;SDS011;54351;49.108;1.502;2023-01-09T08:02:34;344.48;;;319.98;;
67503;SDS011;54351;49.108;1.502;2023-01-09T08:05:01;318.55;;;295.67;;
67503;SDS011;54351;49.108;1.502;2023-01-09T08:07:27;325.50;;;301.60;;
67503;SDS011;54351;49.108;1.502;2023-01-09T08:09:53;366.02;;;340.00;;
67503;SDS011;54351;49.108;1.502;2023-01-09T08:12:19;314.90;;;291.90;;
67503;SDS011;54351;49.108;1.502;2023-01-09T08:14:46;271.67;;;251.63;;
67503;SDS011;54351;49.108;1.502;2023-01-09T08:17:12;293.25;;;272.73;;
67503;SDS011;54351;49.108;1.502;2023-01-09T08:19:38;357.75;;;332.30;;
67503;SDS011;54351;49.108;1.502;2023-01-09T08:22:05;356.85;;;331.55;;
67503;SDS011;54351;49.108;1.502;2023-01-09T08:24:31;363.60;;;337.63;;
67503;SDS011;54351;49.108;1.502;2023-01-09T08:26:58;404.23;;;375.60;;
67503;SDS011;54351;49.108;1.502;2023-01-09T08:29:24;365.55;;;339.67;;
67503;SDS011;54351;49.108;1.502;2023-01-09T08:31:50;375.52;;;348.33;;
67503;SDS011;54351;49.108;1.502;2023-01-09T08:34:16;372.10;;;345.63;;
67503;SDS011;54351;49.108;1.502;2023-01-09T08:36:42;349.58;;;325.35;;
67503;SDS011;54351;49.108;1.502;2023-01-09T08:39:08;414.23;;;384.35;;
67503;SDS011;54351;49.108;1.502;2023-01-09T08:41:34;447.33;;;415.17;;
67503;SDS011;54351;49.108;1.502;2023-01-09T08:44:19;386.65;;;358.40;;
67503;SDS011;54351;49.108;1.502;2023-01-09T08:47:03;443.15;;;408.98;;
67503;SDS011;54351;49.108;1.502;2023-01-09T08:49:29;425.83;;;395.20;;
67503;SDS011;54351;49.108;1.502;2023-01-09T08:51:56;407.25;;;376.15;;
67503;SDS011;54351;49.108;1.502;2023-01-09T08:54:22;416.70;;;385.77;;
67503;SDS011;54351;49.108;1.502;2023-01-09T08:56:48;484.02;;;447.60;;
67503;SDS011;54351;49.108;1.502;2023-01-09T08:59:14;455.77;;;422.00;;
67503;SDS011;54351;49.108;1.502;2023-01-09T09:01:41;428.55;;;398.02;;
67503;SDS011;54351;49.108;1.502;2023-01-09T09:04:07;464.35;;;428.23;;
67503;SDS011;54351;49.108;1.502;2023-01-09T09:06:33;445.08;;;411.35;;
67503;SDS011;54351;49.108;1.502;2023-01-09T09:08:59;486.45;;;448.77;;
67503;SDS011;54351;49.108;1.502;2023-01-09T09:11:30;481.38;;;443.75;;
67503;SDS011;54351;49.108;1.502;2023-01-09T09:13:56;516.17;;;474.23;;
67503;SDS011;54351;49.108;1.502;2023-01-09T09:16:23;467.35;;;431.15;;
67503;SDS011;54351;49.108;1.502;2023-01-09T09:18:49;418.45;;;387.77;;
67503;SDS011;54351;49.108;1.502;2023-01-09T09:21:15;369.25;;;342.88;;
67503;SDS011;54351;49.108;1.502;2023-01-09T09:23:41;287.00;;;266.75;;
67503;SDS011;54351;49.108;1.502;2023-01-09T09:26:10;280.73;;;260.85;;
67503;SDS011;54351;49.108;1.502;2023-01-09T09:28:36;274.02;;;254.50;;
67503;SDS011;54351;49.108;1.502;2023-01-09T09:31:06;221.98;;;205.98;;
67503;SDS011;54351;49.108;1.502;2023-01-09T09:33:32;237.70;;;220.65;;
67503;SDS011;54351;49.108;1.502;2023-01-09T09:35:58;304.55;;;283.23;;
67503;SDS011;54351;49.108;1.502;2023-01-09T09:38:24;285.73;;;265.83;;
67503;SDS011;54351;49.108;1.502;2023-01-09T09:40:56;190.35;;;177.93;;
67503;SDS011;54351;49.108;1.502;2023-01-09T09:49:35;102.88;;;96.30;;
67503;SDS011;54351;49.108;1.502;2023-01-09T09:56:57;114.05;;;106.75;;
67503;SDS011;54351;49.108;1.502;2023-01-09T09:59:25;105.85;;;98.95;;
67503;SDS011;54351;49.108;1.502;2023-01-09T10:01:53;159.05;;;148.82;;
67503;SDS011;54351;49.108;1.502;2023-01-09T10:04:21;142.07;;;132.48;;
67503;SDS011;54351;49.108;1.502;2023-01-09T10:06:52;91.97;;;85.55;;
67503;SDS011;54351;49.108;1.502;2023-01-09T10:14:30;287.38;;;266.65;;
67503;SDS011;54351;49.108;1.502;2023-01-09T10:17:01;296.38;;;275.15;;
67503;SDS011;54351;49.108;1.502;2023-01-09T10:22:05;398.15;;;368.88;;
67503;SDS011;54351;49.108;1.502;2023-01-09T10:29:49;376.02;;;347.80;;
67503;SDS011;54351;49.108;1.502;2023-01-09T10:37:14;442.65;;;410.70;;
67503;SDS011;54351;49.108;1.502;2023-01-09T10:42:08;431.73;;;400.15;;
67503;SDS011;54351;49.108;1.502;2023-01-09T10:44:38;347.80;;;321.80;;
67503;SDS011;54351;49.108;1.502;2023-01-09T10:47:12;466.10;;;430.30;;
67503;SDS011;54351;49.108;1.502;2023-01-09T10:49:40;395.15;;;366.20;;
67503;SDS011;54351;49.108;1.502;2023-01-09T10:52:16;514.58;;;474.42;;
67503;SDS011;54351;49.108;1.502;2023-01-09T10:54:49;457.30;;;423.48;;
67503;SDS011;54351;49.108;1.502;2023-01-09T10:59:42;477.17;;;439.08;;
67503;SDS011;54351;49.108;1.502;2023-01-09T11:02:21;546.05;;;502.60;;
67503;SDS011;54351;49.108;1.502;2023-01-09T11:04:49;532.75;;;491.38;;
67503;SDS011;54351;49.108;1.502;2023-01-09T11:07:19;496.30;;;458.42;;
67503;SDS011;54351;49.108;1.502;2023-01-09T11:09:57;477.90;;;440.05;;
67503;SDS011;54351;49.108;1.502;2023-01-09T11:12:24;473.23;;;437.25;;
67503;SDS011;54351;49.108;1.502;2023-01-09T11:14:50;520.92;;;480.33;;
67503;SDS011;54351;49.108;1.502;2023-01-09T11:17:20;547.25;;;502.27;;
67503;SDS011;54351;49.108;1.502;2023-01-09T11:20:03;558.72;;;513.85;;
67503;SDS011;54351;49.108;1.502;2023-01-09T11:22:40;498.90;;;461.50;;
67503;SDS011;54351;49.108;1.502;2023-01-09T11:25:10;568.30;;;523.60;;
67503;SDS011;54351;49.108;1.502;2023-01-09T11:27:36;516.15;;;475.23;;
67503;SDS011;54351;49.108;1.502;2023-01-09T11:30:04;489.98;;;451.42;;
67503;SDS011;54351;49.108;1.502;2023-01-09T11:32:30;499.40;;;460.20;;
67503;SDS011;54351;49.108;1.502;2023-01-09T11:34:56;492.42;;;454.30;;
67503;SDS011;54351;49.108;1.502;2023-01-09T11:37:31;502.85;;;463.77;;
67503;SDS011;54351;49.108;1.502;2023-01-09T11:39:58;498.73;;;459.45;;
67503;SDS011;54351;49.108;1.502;2023-01-09T11:42:26;495.05;;;456.35;;
67503;SDS011;54351;49.108;1.502;2023-01-09T11:47:40;549.15;;;505.52;;
67503;SDS011;54351;49.108;1.502;2023-01-09T11:50:07;585.05;;;537.17;;
67503;SDS011;54351;49.108;1.502;2023-01-09T11:52:33;562.33;;;517.50;;
67503;SDS011;54351;49.108;1.502;2023-01-09T11:55:01;501.13;;;460.15;;
67503;SDS011;54351;49.108;1.502;2023-01-09T11:57:29;555.22;;;509.55;;
67503;SDS011;54351;49.108;1.502;2023-01-09T11:59:57;588.97;;;541.97;;
67503;SDS011;54351;49.108;1.502;2023-01-09T12:04:55;542.00;;;496.73;;
67503;SDS011;54351;49.108;1.502;2023-01-09T12:28:00;140.10;;;131.25;;
67503;SDS011;54351;49.108;1.502;2023-01-09T12:35:37;297.88;;;277.73;;
67503;SDS011;54351;49.108;1.502;2023-01-09T12:45:59;308.70;;;286.85;;
67503;SDS011;54351;49.108;1.502;2023-01-09T12:56:21;315.17;;;293.33;;
67503;SDS011;54351;49.108;1.502;2023-01-09T12:58:56;352.30;;;327.52;;
67503;SDS011;54351;49.108;1.502;2023-01-09T13:01:31;365.83;;;339.38;;
67503;SDS011;54351;49.108;1.502;2023-01-09T13:06:27;394.25;;;365.00;;
67503;SDS011;54351;49.108;1.502;2023-01-09T13:09:00;349.42;;;322.90;;
67503;SDS011;54351;49.108;1.502;2023-01-09T13:11:29;364.73;;;336.88;;
67503;SDS011;54351;49.108;1.502;2023-01-09T13:13:57;354.00;;;326.90;;
67503;SDS011;54351;49.108;1.502;2023-01-09T13:16:31;333.95;;;308.15;;
67503;SDS011;54351;49.108;1.502;2023-01-09T13:18:59;424.88;;;392.52;;
67503;SDS011;54351;49.108;1.502;2023-01-09T13:21:28;372.23;;;342.80;;
67503;SDS011;54351;49.108;1.502;2023-01-09T13:34:08;369.58;;;340.77;;
67503;SDS011;54351;49.108;1.502;2023-01-09T13:36:36;394.30;;;363.95;;
67503;SDS011;54351;49.108;1.502;2023-01-09T13:39:04;399.92;;;369.73;;
67503;SDS011;54351;49.108;1.502;2023-01-09T13:41:30;349.85;;;323.17;;
67503;SDS011;54351;49.108;1.502;2023-01-09T13:46:48;342.15;;;314.15;;
67503;SDS011;54351;49.108;1.502;2023-01-09T13:52:02;323.65;;;300.67;;
67503;SDS011;54351;49.108;1.502;2023-01-09T13:59:42;298.85;;;277.45;;
67503;SDS011;54351;49.108;1.502;2023-01-09T14:04:54;256.35;;;238.23;;
67503;SDS011;54351;49.108;1.502;2023-01-09T14:07:21;406.23;;;375.00;;
67503;SDS011;54351;49.108;1.502;2023-01-09T14:09:52;179.18;;;166.07;;
67503;SDS011;54351;49.108;1.502;2023-01-09T14:12:20;220.07;;;204.57;;
67503;SDS011;54351;49.108;1.502;2023-01-09T14:14:46;210.88;;;195.10;;
67503;SDS011;54351;49.108;1.502;2023-01-09T14:17:16;173.40;;;160.40;;
67503;SDS011;54351;49.108;1.502;2023-01-09T14:19:43;196.80;;;182.20;;
67503;SDS011;54351;49.108;1.502;2023-01-09T14:22:25;290.48;;;268.13;;
67503;SDS011;54351;49.108;1.502;2023-01-09T14:24:52;364.85;;;336.17;;
67503;SDS011;54351;49.108;1.502;2023-01-09T14:35:37;259.67;;;239.68;;
67503;SDS011;54351;49.108;1.502;2023-01-09T14:38:26;346.13;;;318.95;;
67503;SDS011;54351;49.108;1.502;2023-01-09T14:40:52;352.02;;;324.70;;
67503;SDS011;54351;49.108;1.502;2023-01-09T14:43:27;394.52;;;364.33;;
67503;SDS011;54351;49.108;1.502;2023-01-09T14:45:57;332.13;;;306.52;;
67503;SDS011;54351;49.108;1.502;2023-01-09T14:48:24;368.75;;;339.95;;
67503;SDS011;54351;49.108;1.502;2023-01-09T14:50:51;423.48;;;390.45;;
67503;SDS011;54351;49.108;1.502;2023-01-09T14:55:47;405.42;;;375.33;;
67503;SDS011;54351;49.108;1.502;2023-01-09T14:58:28;347.17;;;324.40;;
67503;SDS011;54351;49.108;1.502;2023-01-09T15:01:05;195.32;;;182.50;;
67503;SDS011;54351;49.108;1.502;2023-01-09T15:03:46;221.73;;;207.50;;
67503;SDS011;54351;49.108;1.502;2023-01-09T15:06:19;213.40;;;199.57;;
67503;SDS011;54351;49.108;1.502;2023-01-09T15:08:46;167.27;;;156.27;;
67503;SDS011;54351;49.108;1.502;2023-01-09T15:11:15;144.82;;;134.40;;
67503;SDS011;54351;49.108;1.502;2023-01-09T15:13:47;144.43;;;134.77;;
67503;SDS011;54351;49.108;1.502;2023-01-09T15:16:18;148.25;;;138.25;;
67503;SDS011;54351;49.108;1.502;2023-01-09T15:18:45;237.90;;;222.27;;
67503;SDS011;54351;49.108;1.502;2023-01-09T15:21:17;282.13;;;263.75;;
67503;SDS011;54351;49.108;1.502;2023-01-09T15:23:43;249.90;;;233.68;;
67503;SDS011;54351;49.108;1.502;2023-01-09T15:26:23;303.55;;;284.42;;
67503;SDS011;54351;49.108;1.502;2023-01-09T15:28:50;347.30;;;324.13;;
67503;SDS011;54351;49.108;1.502;2023-01-09T15:31:17;181.70;;;169.85;;
67503;SDS011;54351;49.108;1.502;2023-01-09T15:33:45;222.02;;;207.07;;
67503;SDS011;54351;49.108;1.502;2023-01-09T15:36:21;254.25;;;237.75;;
67503;SDS011;54351;49.108;1.502;2023-01-09T15:38:48;228.10;;;213.35;;
67503;SDS011;54351;49.108;1.502;2023-01-09T15:41:16;165.93;;;153.93;;
67503;SDS011;54351;49.108;1.502;2023-01-09T15:44:02;199.75;;;185.82;;
67503;SDS011;54351;49.108;1.502;2023-01-09T15:46:28;222.60;;;208.00;;
67503;SDS011;54351;49.108;1.502;2023-01-09T15:48:54;221.48;;;207.27;;
67503;SDS011;54351;49.108;1.502;2023-01-09T15:51:20;185.30;;;172.50;;
67503;SDS011;54351;49.108;1.502;2023-01-09T15:53:47;186.07;;;173.23;;
67503;SDS011;54351;49.108;1.502;2023-01-09T15:56:21;192.13;;;178.88;;
67503;SDS011;54351;49.108;1.502;2023-01-09T15:58:52;163.70;;;152.57;;
67503;SDS011;54351;49.108;1.502;2023-01-09T16:03:44;220.65;;;205.48;;
67503;SDS011;54351;49.108;1.502;2023-01-09T16:06:16;283.30;;;263.55;;
67503;SDS011;54351;49.108;1.502;2023-01-09T16:08:49;326.77;;;304.88;;
67503;SDS011;54351;49.108;1.502;2023-01-09T16:13:49;419.00;;;387.38;;
67503;SDS011;54351;49.108;1.502;2023-01-09T16:21:59;562.60;;;515.83;;
67503;SDS011;54351;49.108;1.502;2023-01-09T16:24:27;548.35;;;504.88;;
67503;SDS011;54351;49.108;1.502;2023-01-09T16:27:19;515.42;;;475.05;;
67503;SDS011;54351;49.108;1.502;2023-01-09T16:29:45;517.15;;;477.48;;
67503;SDS011;54351;49.108;1.502;2023-01-09T16:32:25;428.98;;;394.00;;
67503;SDS011;54351;49.108;1.502;2023-01-09T16:34:54;348.50;;;321.20;;
67503;SDS011;54351;49.108;1.502;2023-01-09T16:37:21;288.80;;;267.55;;
67503;SDS011;54351;49.108;1.502;2023-01-09T16:42:32;197.60;;;184.05;;
67503;SDS011;54351;49.108;1.502;2023-01-09T16:45:17;223.35;;;208.95;;
67503;SDS011;54351;49.108;1.502;2023-01-09T16:47:44;213.55;;;199.50;;
67503;SDS011;54351;49.108;1.502;2023-01-09T16:50:11;237.60;;;222.68;;
67503;SDS011;54351;49.108;1.502;2023-01-09T16:52:37;199.30;;;186.45;;
67503;SDS011;54351;49.108;1.502;2023-01-09T16:55:03;210.50;;;196.40;;